sensor_id;sensor_type;location;lat;lon;timestamp;P1;durP1;ratioP1;P2;durP2;ratioP2
4652;SDS011;9900;48.738;9.306;2022-09-09T00:00:15;7.43;;;2.40;;
4652;SDS011;9900;48.738;9.306;2022-09-09T00:02:46;7.37;;;2.33;;
4652;SDS011;9900;48.738;9.306;2022-09-09T00:05:19;3.73;;;1.80;;
4652;SDS011;9900;48.738;9.306;2022-09-09T00:07:54;7.03;;;2.30;;
4652;SDS011;9900;48.738;9.306;2022-09-09T00:10:25;11.03;;;2.07;;
4652;SDS011;9900;48.738;9.306;2022-09-09T00:12:59;9.47;;;1.83;;
4652;SDS011;9900;48.738;9.306;2022-09-09T00:15:38;4.63;;;1.60;;
4652;SDS011;9900;48.738;9.306;2022-09-09T00:18:13;7.30;;;1.87;;
4652;SDS011;9900;48.738;9.306;2022-09-09T00:20:47;4.47;;;2.03;;
4652;SDS011;9900;48.738;9.306;2022-09-09T00:23:19;3.90;;;1.87;;
4652;SDS011;9900;48.738;9.306;2022-09-09T00:25:55;9.13;;;2.13;;
4652;SDS011;9900;48.738;9.306;2022-09-09T00:28:35;2.90;;;2.00;;
4652;SDS011;9900;48.738;9.306;2022-09-09T00:31:11;3.37;;;1.50;;
4652;SDS011;9900;48.738;9.306;2022-09-09T00:33:41;16.03;;;2.03;;
4652;SDS011;9900;48.738;9.306;2022-09-09T00:36:12;18.77;;;1.90;;
4652;SDS011;9900;48.738;9.306;2022-09-09T00:38:43;3.63;;;1.43;;
4652;SDS011;9900;48.738;9.306;2022-09-09T00:41:14;7.30;;;2.20;;
4652;SDS011;9900;48.738;9.306;2022-09-09T00:43:53;4.53;;;1.67;;
4652;SDS011;9900;48.738;9.306;2022-09-09T00:46:41;8.20;;;1.77;;
4652;SDS011;9900;48.738;9.306;2022-09-09T00:49:23;5.40;;;2.00;;
4652;SDS011;9900;48.738;9.306;2022-09-09T00:51:59;4.40;;;1.67;;
4652;SDS011;9900;48.738;9.306;2022-09-09T00:54:38;5.00;;;1.87;;
4652;SDS011;9900;48.738;9.306;2022-09-09T00:57:14;3.80;;;1.50;;
4652;SDS011;9900;48.738;9.306;2022-09-09T00:59:54;6.03;;;2.60;;
4652;SDS011;9900;48.738;9.306;2022-09-09T01:02:27;6.17;;;2.20;;
4652;SDS011;9900;48.738;9.306;2022-09-09T01:04:58;8.63;;;1.63;;
4652;SDS011;9900;48.738;9.306;2022-09-09T01:07:29;5.13;;;2.33;;
4652;SDS011;9900;48.738;9.306;2022-09-09T01:09:59;7.63;;;1.87;;
4652;SDS011;9900;48.738;9.306;2022-09-09T01:12:32;3.87;;;1.90;;
4652;SDS011;9900;48.738;9.306;2022-09-09T01:15:09;13.10;;;2.57;;
4652;SDS011;9900;48.738;9.306;2022-09-09T01:17:46;8.13;;;2.10;;
4652;SDS011;9900;48.738;9.306;2022-09-09T01:20:18;9.30;;;2.03;;
4652;SDS011;9900;48.738;9.306;2022-09-09T01:23:00;10.93;;;1.83;;
4652;SDS011;9900;48.738;9.306;2022-09-09T01:28:38;3.20;;;1.77;;
4652;SDS011;9900;48.738;9.306;2022-09-09T01:31:07;6.53;;;2.30;;
4652;SDS011;9900;48.738;9.306;2022-09-09T01:33:37;5.53;;;2.23;;
4652;SDS011;9900;48.738;9.306;2022-09-09T01:36:07;6.47;;;2.37;;
4652;SDS011;9900;48.738;9.306;2022-09-09T01:38:37;6.93;;;1.93;;
4652;SDS011;9900;48.738;9.306;2022-09-09T01:41:06;6.33;;;2.70;;
4652;SDS011;9900;48.738;9.306;2022-09-09T01:43:36;6.37;;;2.40;;
4652;SDS011;9900;48.738;9.306;2022-09-09T01:46:05;5.07;;;2.23;;
4652;SDS011;9900;48.738;9.306;2022-09-09T01:48:34;10.07;;;2.77;;
4652;SDS011;9900;48.738;9.306;2022-09-09T01:51:03;9.70;;;2.47;;
4652;SDS011;9900;48.738;9.306;2022-09-09T01:53:32;5.73;;;2.20;;
4652;SDS011;9900;48.738;9.306;2022-09-09T01:56:07;4.60;;;2.27;;
4652;SDS011;9900;48.738;9.306;2022-09-09T01:58:51;8.70;;;1.70;;
4652;SDS011;9900;48.738;9.306;2022-09-09T02:01:27;10.33;;;2.13;;
4652;SDS011;9900;48.738;9.306;2022-09-09T02:04:02;11.63;;;2.40;;
4652;SDS011;9900;48.738;9.306;2022-09-09T02:06:35;6.67;;;2.67;;
4652;SDS011;9900;48.738;9.306;2022-09-09T02:09:06;8.73;;;2.00;;
4652;SDS011;9900;48.738;9.306;2022-09-09T02:11:36;7.80;;;1.87;;
4652;SDS011;9900;48.738;9.306;2022-09-09T02:14:08;6.57;;;2.30;;
4652;SDS011;9900;48.738;9.306;2022-09-09T02:16:40;5.63;;;2.43;;
4652;SDS011;9900;48.738;9.306;2022-09-09T02:19:11;5.70;;;2.50;;
4652;SDS011;9900;48.738;9.306;2022-09-09T02:21:42;10.50;;;2.77;;
4652;SDS011;9900;48.738;9.306;2022-09-09T02:24:12;11.23;;;2.10;;
4652;SDS011;9900;48.738;9.306;2022-09-09T02:26:42;7.27;;;2.63;;
4652;SDS011;9900;48.738;9.306;2022-09-09T02:29:15;3.67;;;2.00;;
4652;SDS011;9900;48.738;9.306;2022-09-09T02:31:47;5.63;;;1.90;;
4652;SDS011;9900;48.738;9.306;2022-09-09T02:34:16;8.20;;;2.37;;
4652;SDS011;9900;48.738;9.306;2022-09-09T02:36:46;3.30;;;1.90;;
4652;SDS011;9900;48.738;9.306;2022-09-09T02:39:15;3.80;;;1.70;;
4652;SDS011;9900;48.738;9.306;2022-09-09T02:41:44;5.20;;;1.93;;
4652;SDS011;9900;48.738;9.306;2022-09-09T02:44:13;5.93;;;1.60;;
4652;SDS011;9900;48.738;9.306;2022-09-09T02:49:43;11.10;;;2.17;;
4652;SDS011;9900;48.738;9.306;2022-09-09T02:52:20;5.43;;;1.87;;
4652;SDS011;9900;48.738;9.306;2022-09-09T02:54:51;6.03;;;2.50;;
4652;SDS011;9900;48.738;9.306;2022-09-09T02:57:23;9.30;;;2.60;;
4652;SDS011;9900;48.738;9.306;2022-09-09T02:59:57;7.33;;;2.90;;
4652;SDS011;9900;48.738;9.306;2022-09-09T03:02:27;10.23;;;2.93;;
4652;SDS011;9900;48.738;9.306;2022-09-09T03:04:56;14.73;;;3.13;;
4652;SDS011;9900;48.738;9.306;2022-09-09T03:07:25;7.07;;;3.10;;
4652;SDS011;9900;48.738;9.306;2022-09-09T03:09:54;15.93;;;2.73;;
4652;SDS011;9900;48.738;9.306;2022-09-09T03:12:23;6.53;;;3.20;;
4652;SDS011;9900;48.738;9.306;2022-09-09T03:14:52;6.37;;;3.20;;
4652;SDS011;9900;48.738;9.306;2022-09-09T03:17:22;7.60;;;3.60;;
4652;SDS011;9900;48.738;9.306;2022-09-09T03:19:51;6.90;;;3.43;;
4652;SDS011;9900;48.738;9.306;2022-09-09T03:22:21;16.33;;;3.40;;
4652;SDS011;9900;48.738;9.306;2022-09-09T03:24:50;7.30;;;2.80;;
4652;SDS011;9900;48.738;9.306;2022-09-09T03:27:19;9.77;;;2.67;;
4652;SDS011;9900;48.738;9.306;2022-09-09T03:29:48;2.90;;;1.73;;
4652;SDS011;9900;48.738;9.306;2022-09-09T03:32:18;17.80;;;3.80;;
4652;SDS011;9900;48.738;9.306;2022-09-09T03:34:50;12.83;;;2.40;;
4652;SDS011;9900;48.738;9.306;2022-09-09T03:37:19;12.17;;;2.77;;
4652;SDS011;9900;48.738;9.306;2022-09-09T03:39:49;7.13;;;2.23;;
4652;SDS011;9900;48.738;9.306;2022-09-09T03:42:18;4.20;;;2.13;;
4652;SDS011;9900;48.738;9.306;2022-09-09T03:44:47;4.83;;;1.70;;
4652;SDS011;9900;48.738;9.306;2022-09-09T03:47:17;6.50;;;1.80;;
4652;SDS011;9900;48.738;9.306;2022-09-09T03:49:46;5.93;;;1.93;;
4652;SDS011;9900;48.738;9.306;2022-09-09T03:52:16;7.50;;;1.83;;
4652;SDS011;9900;48.738;9.306;2022-09-09T03:54:49;5.93;;;2.27;;
4652;SDS011;9900;48.738;9.306;2022-09-09T03:57:18;9.00;;;1.87;;
4652;SDS011;9900;48.738;9.306;2022-09-09T03:59:47;4.03;;;1.90;;
4652;SDS011;9900;48.738;9.306;2022-09-09T04:02:15;11.37;;;2.30;;
4652;SDS011;9900;48.738;9.306;2022-09-09T04:04:44;6.17;;;1.77;;
4652;SDS011;9900;48.738;9.306;2022-09-09T04:07:13;4.90;;;2.33;;
4652;SDS011;9900;48.738;9.306;2022-09-09T04:09:43;7.40;;;1.87;;
4652;SDS011;9900;48.738;9.306;2022-09-09T04:12:11;3.93;;;1.67;;
4652;SDS011;9900;48.738;9.306;2022-09-09T04:14:41;5.20;;;2.33;;
4652;SDS011;9900;48.738;9.306;2022-09-09T04:17:09;13.83;;;2.07;;
4652;SDS011;9900;48.738;9.306;2022-09-09T04:19:38;4.20;;;2.10;;
4652;SDS011;9900;48.738;9.306;2022-09-09T04:22:07;11.13;;;2.00;;
4652;SDS011;9900;48.738;9.306;2022-09-09T04:24:36;7.07;;;1.90;;
4652;SDS011;9900;48.738;9.306;2022-09-09T04:27:06;5.70;;;2.10;;
4652;SDS011;9900;48.738;9.306;2022-09-09T04:29:35;5.30;;;2.00;;
4652;SDS011;9900;48.738;9.306;2022-09-09T04:32:04;4.50;;;2.00;;
4652;SDS011;9900;48.738;9.306;2022-09-09T04:34:33;1.83;;;1.60;;
4652;SDS011;9900;48.738;9.306;2022-09-09T04:37:01;5.17;;;2.10;;
4652;SDS011;9900;48.738;9.306;2022-09-09T04:39:30;6.10;;;1.93;;
4652;SDS011;9900;48.738;9.306;2022-09-09T04:41:59;8.30;;;2.27;;
4652;SDS011;9900;48.738;9.306;2022-09-09T04:44:29;6.97;;;1.73;;
4652;SDS011;9900;48.738;9.306;2022-09-09T04:46:57;9.97;;;2.00;;
4652;SDS011;9900;48.738;9.306;2022-09-09T04:49:26;6.00;;;2.03;;
4652;SDS011;9900;48.738;9.306;2022-09-09T04:51:55;6.67;;;1.90;;
4652;SDS011;9900;48.738;9.306;2022-09-09T04:54:24;7.57;;;2.30;;
4652;SDS011;9900;48.738;9.306;2022-09-09T04:56:52;4.90;;;2.43;;
4652;SDS011;9900;48.738;9.306;2022-09-09T04:59:22;2.80;;;1.73;;
4652;SDS011;9900;48.738;9.306;2022-09-09T05:01:52;4.50;;;2.10;;
4652;SDS011;9900;48.738;9.306;2022-09-09T05:04:22;10.20;;;2.40;;
4652;SDS011;9900;48.738;9.306;2022-09-09T05:06:51;9.93;;;2.80;;
4652;SDS011;9900;48.738;9.306;2022-09-09T05:09:19;4.90;;;1.80;;
4652;SDS011;9900;48.738;9.306;2022-09-09T05:11:49;6.67;;;1.80;;
4652;SDS011;9900;48.738;9.306;2022-09-09T05:14:18;7.87;;;2.20;;
4652;SDS011;9900;48.738;9.306;2022-09-09T05:16:47;5.10;;;1.60;;
4652;SDS011;9900;48.738;9.306;2022-09-09T05:19:18;12.37;;;1.83;;
4652;SDS011;9900;48.738;9.306;2022-09-09T05:21:47;5.63;;;1.97;;
4652;SDS011;9900;48.738;9.306;2022-09-09T05:24:15;4.20;;;2.07;;
4652;SDS011;9900;48.738;9.306;2022-09-09T05:26:45;3.47;;;1.90;;
4652;SDS011;9900;48.738;9.306;2022-09-09T05:29:13;8.30;;;2.00;;
4652;SDS011;9900;48.738;9.306;2022-09-09T05:31:46;6.90;;;2.03;;
4652;SDS011;9900;48.738;9.306;2022-09-09T05:34:15;7.77;;;2.37;;
4652;SDS011;9900;48.738;9.306;2022-09-09T05:36:45;4.27;;;2.07;;
4652;SDS011;9900;48.738;9.306;2022-09-09T05:39:14;8.80;;;2.00;;
4652;SDS011;9900;48.738;9.306;2022-09-09T05:41:43;10.63;;;2.70;;
4652;SDS011;9900;48.738;9.306;2022-09-09T05:44:12;12.53;;;2.97;;
4652;SDS011;9900;48.738;9.306;2022-09-09T05:46:40;9.53;;;2.20;;
4652;SDS011;9900;48.738;9.306;2022-09-09T05:49:09;9.20;;;2.40;;
4652;SDS011;9900;48.738;9.306;2022-09-09T05:51:38;4.17;;;1.80;;
4652;SDS011;9900;48.738;9.306;2022-09-09T05:54:09;9.40;;;2.00;;
4652;SDS011;9900;48.738;9.306;2022-09-09T05:56:37;9.90;;;2.57;;
4652;SDS011;9900;48.738;9.306;2022-09-09T05:59:06;8.90;;;2.20;;
4652;SDS011;9900;48.738;9.306;2022-09-09T06:01:36;5.70;;;2.40;;
4652;SDS011;9900;48.738;9.306;2022-09-09T06:04:07;9.00;;;2.00;;
4652;SDS011;9900;48.738;9.306;2022-09-09T06:06:37;7.60;;;2.27;;
4652;SDS011;9900;48.738;9.306;2022-09-09T06:09:09;6.53;;;2.70;;
4652;SDS011;9900;48.738;9.306;2022-09-09T06:11:39;7.90;;;2.47;;
4652;SDS011;9900;48.738;9.306;2022-09-09T06:14:08;6.70;;;2.17;;
4652;SDS011;9900;48.738;9.306;2022-09-09T06:16:37;7.70;;;1.90;;
4652;SDS011;9900;48.738;9.306;2022-09-09T06:19:06;8.97;;;2.20;;
4652;SDS011;9900;48.738;9.306;2022-09-09T06:21:35;7.17;;;2.10;;
4652;SDS011;9900;48.738;9.306;2022-09-09T06:24:05;9.63;;;1.80;;
4652;SDS011;9900;48.738;9.306;2022-09-09T06:26:36;10.60;;;2.60;;
4652;SDS011;9900;48.738;9.306;2022-09-09T06:29:08;14.83;;;2.57;;
4652;SDS011;9900;48.738;9.306;2022-09-09T06:31:37;15.90;;;1.90;;
4652;SDS011;9900;48.738;9.306;2022-09-09T06:34:07;5.17;;;2.20;;
4652;SDS011;9900;48.738;9.306;2022-09-09T06:36:37;9.10;;;2.00;;
4652;SDS011;9900;48.738;9.306;2022-09-09T06:39:07;12.07;;;2.33;;
4652;SDS011;9900;48.738;9.306;2022-09-09T06:41:42;6.93;;;2.33;;
4652;SDS011;9900;48.738;9.306;2022-09-09T06:44:11;7.37;;;2.00;;
4652;SDS011;9900;48.738;9.306;2022-09-09T06:46:40;8.90;;;2.20;;
4652;SDS011;9900;48.738;9.306;2022-09-09T06:49:09;11.80;;;2.20;;
4652;SDS011;9900;48.738;9.306;2022-09-09T06:51:38;7.33;;;1.90;;
4652;SDS011;9900;48.738;9.306;2022-09-09T06:54:10;8.20;;;2.50;;
4652;SDS011;9900;48.738;9.306;2022-09-09T06:56:40;7.67;;;2.37;;
4652;SDS011;9900;48.738;9.306;2022-09-09T06:59:11;12.07;;;2.60;;
4652;SDS011;9900;48.738;9.306;2022-09-09T07:01:41;17.20;;;2.90;;
4652;SDS011;9900;48.738;9.306;2022-09-09T07:04:11;10.00;;;3.20;;
4652;SDS011;9900;48.738;9.306;2022-09-09T07:06:41;12.13;;;2.60;;
4652;SDS011;9900;48.738;9.306;2022-09-09T07:09:12;9.93;;;2.70;;
4652;SDS011;9900;48.738;9.306;2022-09-09T07:11:43;9.97;;;2.90;;
4652;SDS011;9900;48.738;9.306;2022-09-09T07:14:14;10.53;;;2.50;;
4652;SDS011;9900;48.738;9.306;2022-09-09T07:16:44;5.57;;;2.27;;
4652;SDS011;9900;48.738;9.306;2022-09-09T07:19:13;7.87;;;2.00;;
4652;SDS011;9900;48.738;9.306;2022-09-09T07:21:42;17.23;;;2.23;;
4652;SDS011;9900;48.738;9.306;2022-09-09T07:24:12;8.70;;;2.20;;
4652;SDS011;9900;48.738;9.306;2022-09-09T07:26:42;9.80;;;2.03;;
4652;SDS011;9900;48.738;9.306;2022-09-09T07:29:14;9.33;;;2.20;;
4652;SDS011;9900;48.738;9.306;2022-09-09T07:31:48;6.40;;;2.17;;
4652;SDS011;9900;48.738;9.306;2022-09-09T07:34:19;5.70;;;1.47;;
4652;SDS011;9900;48.738;9.306;2022-09-09T07:36:48;9.10;;;1.87;;
4652;SDS011;9900;48.738;9.306;2022-09-09T07:39:17;7.20;;;2.10;;
4652;SDS011;9900;48.738;9.306;2022-09-09T07:41:46;3.10;;;1.60;;
4652;SDS011;9900;48.738;9.306;2022-09-09T07:44:18;5.60;;;1.97;;
4652;SDS011;9900;48.738;9.306;2022-09-09T07:46:48;3.20;;;1.17;;
4652;SDS011;9900;48.738;9.306;2022-09-09T07:49:17;2.90;;;1.27;;
4652;SDS011;9900;48.738;9.306;2022-09-09T07:51:54;5.77;;;1.50;;
4652;SDS011;9900;48.738;9.306;2022-09-09T07:54:23;2.40;;;1.70;;
4652;SDS011;9900;48.738;9.306;2022-09-09T07:56:53;4.63;;;1.50;;
4652;SDS011;9900;48.738;9.306;2022-09-09T07:59:23;8.57;;;2.20;;
4652;SDS011;9900;48.738;9.306;2022-09-09T08:01:52;4.67;;;1.90;;
4652;SDS011;9900;48.738;9.306;2022-09-09T08:04:22;5.17;;;1.50;;
4652;SDS011;9900;48.738;9.306;2022-09-09T08:06:53;4.70;;;2.50;;
4652;SDS011;9900;48.738;9.306;2022-09-09T08:09:23;5.53;;;1.60;;
4652;SDS011;9900;48.738;9.306;2022-09-09T08:11:54;4.37;;;1.93;;
4652;SDS011;9900;48.738;9.306;2022-09-09T08:14:24;3.30;;;1.67;;
4652;SDS011;9900;48.738;9.306;2022-09-09T08:16:54;11.10;;;2.60;;
4652;SDS011;9900;48.738;9.306;2022-09-09T08:19:24;9.40;;;2.03;;
4652;SDS011;9900;48.738;9.306;2022-09-09T08:21:53;4.47;;;1.40;;
4652;SDS011;9900;48.738;9.306;2022-09-09T08:24:21;5.37;;;1.57;;
4652;SDS011;9900;48.738;9.306;2022-09-09T08:26:50;6.37;;;2.03;;
4652;SDS011;9900;48.738;9.306;2022-09-09T08:29:19;4.10;;;1.20;;
4652;SDS011;9900;48.738;9.306;2022-09-09T08:31:53;5.13;;;1.87;;
4652;SDS011;9900;48.738;9.306;2022-09-09T08:34:23;9.47;;;2.20;;
4652;SDS011;9900;48.738;9.306;2022-09-09T08:36:54;1.93;;;1.20;;
4652;SDS011;9900;48.738;9.306;2022-09-09T08:39:26;4.90;;;1.33;;
4652;SDS011;9900;48.738;9.306;2022-09-09T08:42:07;5.07;;;1.60;;
4652;SDS011;9900;48.738;9.306;2022-09-09T08:47:57;5.13;;;1.57;;
4652;SDS011;9900;48.738;9.306;2022-09-09T08:50:36;6.53;;;1.23;;
4652;SDS011;9900;48.738;9.306;2022-09-09T08:53:09;5.40;;;1.10;;
4652;SDS011;9900;48.738;9.306;2022-09-09T08:55:41;5.50;;;1.20;;
4652;SDS011;9900;48.738;9.306;2022-09-09T08:58:13;7.70;;;1.20;;
4652;SDS011;9900;48.738;9.306;2022-09-09T09:00:56;4.20;;;1.10;;
4652;SDS011;9900;48.738;9.306;2022-09-09T09:03:33;6.73;;;1.30;;
4652;SDS011;9900;48.738;9.306;2022-09-09T09:06:06;2.93;;;1.10;;
4652;SDS011;9900;48.738;9.306;2022-09-09T09:08:43;3.10;;;1.40;;
4652;SDS011;9900;48.738;9.306;2022-09-09T09:11:16;2.97;;;0.90;;
4652;SDS011;9900;48.738;9.306;2022-09-09T09:13:45;3.90;;;0.90;;
4652;SDS011;9900;48.738;9.306;2022-09-09T09:16:19;2.60;;;1.03;;
4652;SDS011;9900;48.738;9.306;2022-09-09T09:18:53;4.57;;;1.20;;
4652;SDS011;9900;48.738;9.306;2022-09-09T09:21:25;8.67;;;1.40;;
4652;SDS011;9900;48.738;9.306;2022-09-09T09:24:00;5.03;;;1.10;;
4652;SDS011;9900;48.738;9.306;2022-09-09T09:26:33;4.43;;;1.00;;
4652;SDS011;9900;48.738;9.306;2022-09-09T09:29:07;5.00;;;1.17;;
4652;SDS011;9900;48.738;9.306;2022-09-09T09:31:39;3.63;;;1.53;;
4652;SDS011;9900;48.738;9.306;2022-09-09T09:34:12;3.83;;;1.40;;
4652;SDS011;9900;48.738;9.306;2022-09-09T09:36:41;9.77;;;1.50;;
4652;SDS011;9900;48.738;9.306;2022-09-09T09:39:22;6.40;;;1.57;;
4652;SDS011;9900;48.738;9.306;2022-09-09T09:42:12;17.50;;;1.50;;
4652;SDS011;9900;48.738;9.306;2022-09-09T09:44:43;14.53;;;1.40;;
4652;SDS011;9900;48.738;9.306;2022-09-09T09:47:12;8.23;;;1.17;;
4652;SDS011;9900;48.738;9.306;2022-09-09T09:49:51;3.33;;;1.00;;
4652;SDS011;9900;48.738;9.306;2022-09-09T09:52:21;2.50;;;0.77;;
4652;SDS011;9900;48.738;9.306;2022-09-09T09:54:52;3.50;;;0.90;;
4652;SDS011;9900;48.738;9.306;2022-09-09T09:57:23;1.87;;;0.80;;
4652;SDS011;9900;48.738;9.306;2022-09-09T10:00:02;2.60;;;1.03;;
4652;SDS011;9900;48.738;9.306;2022-09-09T10:02:37;1.17;;;0.90;;
4652;SDS011;9900;48.738;9.306;2022-09-09T10:05:12;2.37;;;1.07;;
4652;SDS011;9900;48.738;9.306;2022-09-09T10:07:42;3.77;;;1.00;;
4652;SDS011;9900;48.738;9.306;2022-09-09T10:10:14;8.80;;;1.00;;
4652;SDS011;9900;48.738;9.306;2022-09-09T10:12:47;3.37;;;1.20;;
4652;SDS011;9900;48.738;9.306;2022-09-09T10:15:25;2.30;;;0.90;;
4652;SDS011;9900;48.738;9.306;2022-09-09T10:18:00;2.80;;;1.27;;
4652;SDS011;9900;48.738;9.306;2022-09-09T10:20:40;2.20;;;0.97;;
4652;SDS011;9900;48.738;9.306;2022-09-09T10:23:15;2.80;;;1.00;;
4652;SDS011;9900;48.738;9.306;2022-09-09T10:25:58;2.47;;;1.00;;
4652;SDS011;9900;48.738;9.306;2022-09-09T10:28:37;3.23;;;1.10;;
4652;SDS011;9900;48.738;9.306;2022-09-09T10:31:17;2.50;;;1.30;;
4652;SDS011;9900;48.738;9.306;2022-09-09T10:33:50;2.93;;;0.93;;
4652;SDS011;9900;48.738;9.306;2022-09-09T10:36:21;2.33;;;0.90;;
4652;SDS011;9900;48.738;9.306;2022-09-09T10:38:53;3.40;;;0.97;;
4652;SDS011;9900;48.738;9.306;2022-09-09T10:41:35;2.73;;;1.10;;
4652;SDS011;9900;48.738;9.306;2022-09-09T10:53:34;4.60;;;1.00;;
4652;SDS011;9900;48.738;9.306;2022-09-09T10:56:06;2.77;;;0.90;;
4652;SDS011;9900;48.738;9.306;2022-09-09T10:58:37;4.60;;;1.10;;
4652;SDS011;9900;48.738;9.306;2022-09-09T11:01:12;3.93;;;0.93;;
4652;SDS011;9900;48.738;9.306;2022-09-09T11:03:44;2.20;;;0.90;;
4652;SDS011;9900;48.738;9.306;2022-09-09T11:06:17;7.80;;;1.40;;
4652;SDS011;9900;48.738;9.306;2022-09-09T11:08:49;3.47;;;1.37;;
4652;SDS011;9900;48.738;9.306;2022-09-09T11:11:25;12.70;;;1.60;;
4652;SDS011;9900;48.738;9.306;2022-09-09T11:13:57;7.87;;;1.60;;
4652;SDS011;9900;48.738;9.306;2022-09-09T11:16:30;8.20;;;1.53;;
4652;SDS011;9900;48.738;9.306;2022-09-09T11:19:03;3.43;;;1.10;;
4652;SDS011;9900;48.738;9.306;2022-09-09T11:21:37;4.67;;;1.00;;
4652;SDS011;9900;48.738;9.306;2022-09-09T11:24:11;3.37;;;1.30;;
4652;SDS011;9900;48.738;9.306;2022-09-09T11:26:44;5.97;;;1.50;;
4652;SDS011;9900;48.738;9.306;2022-09-09T11:29:32;3.97;;;1.40;;
4652;SDS011;9900;48.738;9.306;2022-09-09T11:32:16;2.53;;;1.20;;
4652;SDS011;9900;48.738;9.306;2022-09-09T11:34:56;3.30;;;1.20;;
4652;SDS011;9900;48.738;9.306;2022-09-09T11:37:53;7.93;;;1.27;;
4652;SDS011;9900;48.738;9.306;2022-09-09T11:40:32;3.30;;;1.10;;
4652;SDS011;9900;48.738;9.306;2022-09-09T11:43:03;5.77;;;1.27;;
4652;SDS011;9900;48.738;9.306;2022-09-09T11:45:34;6.33;;;1.33;;
4652;SDS011;9900;48.738;9.306;2022-09-09T11:48:03;3.80;;;1.00;;
4652;SDS011;9900;48.738;9.306;2022-09-09T11:50:34;3.60;;;1.10;;
4652;SDS011;9900;48.738;9.306;2022-09-09T11:53:05;2.13;;;1.20;;
4652;SDS011;9900;48.738;9.306;2022-09-09T11:55:59;3.03;;;1.33;;
4652;SDS011;9900;48.738;9.306;2022-09-09T11:58:31;3.63;;;1.03;;
4652;SDS011;9900;48.738;9.306;2022-09-09T12:07:00;0.97;;;0.80;;
4652;SDS011;9900;48.738;9.306;2022-09-09T12:09:33;1.93;;;0.80;;
4652;SDS011;9900;48.738;9.306;2022-09-09T12:15:00;2.80;;;1.00;;
4652;SDS011;9900;48.738;9.306;2022-09-09T12:17:31;2.10;;;0.80;;
4652;SDS011;9900;48.738;9.306;2022-09-09T12:20:11;1.67;;;1.10;;
4652;SDS011;9900;48.738;9.306;2022-09-09T12:22:45;2.70;;;0.67;;
4652;SDS011;9900;48.738;9.306;2022-09-09T12:25:23;0.90;;;0.60;;
4652;SDS011;9900;48.738;9.306;2022-09-09T12:28:03;2.23;;;0.80;;
4652;SDS011;9900;48.738;9.306;2022-09-09T12:30:36;1.17;;;0.50;;
4652;SDS011;9900;48.738;9.306;2022-09-09T12:33:10;0.93;;;0.60;;
4652;SDS011;9900;48.738;9.306;2022-09-09T12:35:41;1.77;;;0.70;;
4652;SDS011;9900;48.738;9.306;2022-09-09T12:38:12;3.33;;;1.10;;
4652;SDS011;9900;48.738;9.306;2022-09-09T12:40:43;2.50;;;0.60;;
4652;SDS011;9900;48.738;9.306;2022-09-09T12:43:24;2.10;;;0.90;;
4652;SDS011;9900;48.738;9.306;2022-09-09T12:45:55;1.23;;;0.70;;
4652;SDS011;9900;48.738;9.306;2022-09-09T12:48:31;1.43;;;0.70;;
4652;SDS011;9900;48.738;9.306;2022-09-09T12:51:02;1.93;;;0.80;;
4652;SDS011;9900;48.738;9.306;2022-09-09T12:53:33;1.87;;;1.20;;
4652;SDS011;9900;48.738;9.306;2022-09-09T12:56:04;2.50;;;0.90;;
4652;SDS011;9900;48.738;9.306;2022-09-09T12:58:36;3.33;;;0.70;;
4652;SDS011;9900;48.738;9.306;2022-09-09T13:01:17;1.67;;;0.80;;
4652;SDS011;9900;48.738;9.306;2022-09-09T13:03:49;2.87;;;0.80;;
4652;SDS011;9900;48.738;9.306;2022-09-09T13:06:19;1.80;;;0.80;;
4652;SDS011;9900;48.738;9.306;2022-09-09T13:08:56;4.90;;;0.83;;
4652;SDS011;9900;48.738;9.306;2022-09-09T13:11:28;2.27;;;1.00;;
4652;SDS011;9900;48.738;9.306;2022-09-09T13:14:02;2.23;;;0.90;;
4652;SDS011;9900;48.738;9.306;2022-09-09T13:16:32;1.40;;;0.83;;
4652;SDS011;9900;48.738;9.306;2022-09-09T13:19:09;4.03;;;0.80;;
4652;SDS011;9900;48.738;9.306;2022-09-09T13:21:42;2.80;;;0.80;;
4652;SDS011;9900;48.738;9.306;2022-09-09T13:24:22;5.10;;;0.70;;
4652;SDS011;9900;48.738;9.306;2022-09-09T13:26:56;1.83;;;0.80;;
4652;SDS011;9900;48.738;9.306;2022-09-09T13:29:27;2.40;;;0.80;;
4652;SDS011;9900;48.738;9.306;2022-09-09T13:32:03;2.27;;;0.87;;
4652;SDS011;9900;48.738;9.306;2022-09-09T13:34:33;2.90;;;0.90;;
4652;SDS011;9900;48.738;9.306;2022-09-09T13:37:03;3.63;;;0.90;;
4652;SDS011;9900;48.738;9.306;2022-09-09T13:39:34;2.07;;;0.93;;
4652;SDS011;9900;48.738;9.306;2022-09-09T13:42:04;3.77;;;1.00;;
4652;SDS011;9900;48.738;9.306;2022-09-09T13:44:36;3.77;;;0.90;;
4652;SDS011;9900;48.738;9.306;2022-09-09T13:47:16;2.40;;;0.90;;
4652;SDS011;9900;48.738;9.306;2022-09-09T13:49:47;2.03;;;0.70;;
4652;SDS011;9900;48.738;9.306;2022-09-09T13:52:16;1.47;;;0.80;;
4652;SDS011;9900;48.738;9.306;2022-09-09T13:54:47;2.07;;;0.80;;
4652;SDS011;9900;48.738;9.306;2022-09-09T13:57:17;3.70;;;0.77;;
4652;SDS011;9900;48.738;9.306;2022-09-09T13:59:48;1.10;;;0.70;;
4652;SDS011;9900;48.738;9.306;2022-09-09T14:02:31;1.73;;;0.77;;
4652;SDS011;9900;48.738;9.306;2022-09-09T14:04:59;2.33;;;1.07;;
4652;SDS011;9900;48.738;9.306;2022-09-09T14:07:29;3.10;;;0.80;;
4652;SDS011;9900;48.738;9.306;2022-09-09T14:09:57;1.83;;;0.83;;
4652;SDS011;9900;48.738;9.306;2022-09-09T14:12:27;1.53;;;0.70;;
4652;SDS011;9900;48.738;9.306;2022-09-09T14:14:57;2.53;;;1.03;;
4652;SDS011;9900;48.738;9.306;2022-09-09T14:17:26;1.63;;;0.80;;
4652;SDS011;9900;48.738;9.306;2022-09-09T14:19:57;1.47;;;0.90;;
4652;SDS011;9900;48.738;9.306;2022-09-09T14:22:27;1.50;;;1.00;;
4652;SDS011;9900;48.738;9.306;2022-09-09T14:24:55;2.07;;;0.90;;
4652;SDS011;9900;48.738;9.306;2022-09-09T14:27:25;4.57;;;1.10;;
4652;SDS011;9900;48.738;9.306;2022-09-09T14:29:54;2.30;;;0.80;;
4652;SDS011;9900;48.738;9.306;2022-09-09T14:32:24;4.13;;;1.20;;
4652;SDS011;9900;48.738;9.306;2022-09-09T14:34:53;4.50;;;0.90;;
4652;SDS011;9900;48.738;9.306;2022-09-09T14:37:22;2.23;;;1.00;;
4652;SDS011;9900;48.738;9.306;2022-09-09T14:39:51;2.40;;;0.80;;
4652;SDS011;9900;48.738;9.306;2022-09-09T14:42:21;0.90;;;0.70;;
4652;SDS011;9900;48.738;9.306;2022-09-09T14:44:50;2.40;;;0.90;;
4652;SDS011;9900;48.738;9.306;2022-09-09T14:47:19;1.13;;;0.60;;
4652;SDS011;9900;48.738;9.306;2022-09-09T14:49:49;2.10;;;0.90;;
4652;SDS011;9900;48.738;9.306;2022-09-09T14:52:19;3.07;;;0.67;;
4652;SDS011;9900;48.738;9.306;2022-09-09T14:54:48;4.33;;;0.87;;
4652;SDS011;9900;48.738;9.306;2022-09-09T14:57:16;1.53;;;0.70;;
4652;SDS011;9900;48.738;9.306;2022-09-09T14:59:45;1.30;;;0.70;;
4652;SDS011;9900;48.738;9.306;2022-09-09T15:02:14;1.43;;;0.80;;
4652;SDS011;9900;48.738;9.306;2022-09-09T15:04:43;3.73;;;0.83;;
4652;SDS011;9900;48.738;9.306;2022-09-09T15:07:13;1.70;;;0.70;;
4652;SDS011;9900;48.738;9.306;2022-09-09T15:09:42;1.20;;;0.60;;
4652;SDS011;9900;48.738;9.306;2022-09-09T15:12:11;2.73;;;0.90;;
4652;SDS011;9900;48.738;9.306;2022-09-09T15:14:40;1.30;;;0.70;;
4652;SDS011;9900;48.738;9.306;2022-09-09T15:17:09;7.50;;;0.80;;
4652;SDS011;9900;48.738;9.306;2022-09-09T15:19:38;2.40;;;0.70;;
4652;SDS011;9900;48.738;9.306;2022-09-09T15:22:07;2.30;;;0.80;;
4652;SDS011;9900;48.738;9.306;2022-09-09T15:24:38;2.40;;;0.70;;
4652;SDS011;9900;48.738;9.306;2022-09-09T15:27:06;1.63;;;1.17;;
4652;SDS011;9900;48.738;9.306;2022-09-09T15:29:35;2.57;;;1.20;;
4652;SDS011;9900;48.738;9.306;2022-09-09T15:32:05;5.07;;;1.10;;
4652;SDS011;9900;48.738;9.306;2022-09-09T15:34:34;3.00;;;1.20;;
4652;SDS011;9900;48.738;9.306;2022-09-09T15:37:03;5.53;;;1.30;;
4652;SDS011;9900;48.738;9.306;2022-09-09T15:39:33;4.17;;;1.13;;
4652;SDS011;9900;48.738;9.306;2022-09-09T15:42:06;3.23;;;1.00;;
4652;SDS011;9900;48.738;9.306;2022-09-09T15:44:38;4.23;;;0.93;;
4652;SDS011;9900;48.738;9.306;2022-09-09T15:47:10;2.80;;;1.27;;
4652;SDS011;9900;48.738;9.306;2022-09-09T15:49:40;2.10;;;1.10;;
4652;SDS011;9900;48.738;9.306;2022-09-09T15:52:09;1.40;;;0.97;;
4652;SDS011;9900;48.738;9.306;2022-09-09T15:54:38;1.40;;;0.80;;
4652;SDS011;9900;48.738;9.306;2022-09-09T15:57:14;2.20;;;0.90;;
4652;SDS011;9900;48.738;9.306;2022-09-09T15:59:45;2.13;;;0.87;;
4652;SDS011;9900;48.738;9.306;2022-09-09T16:02:17;3.50;;;1.60;;
4652;SDS011;9900;48.738;9.306;2022-09-09T16:04:46;4.57;;;1.33;;
4652;SDS011;9900;48.738;9.306;2022-09-09T16:07:15;4.40;;;0.90;;
4652;SDS011;9900;48.738;9.306;2022-09-09T16:09:44;3.10;;;1.00;;